Time;durP1;ratioP1;P1;durP2;ratioP2;P2;SDS_P1;SDS_P2;PMS_P1;PMS_P2;Temp;Humidity;BMP_temperature;BMP_pressure;BME280_temperature;BME280_humidity;BME280_pressure;Samples;Min_cycle;Max_cycle;Signal;HPM_P1;HPM_P2
2021/05/01 00:00:16;;;;;;;9.38;4.70;;;;;;;;;;5111666;28;20059;-71
2021/05/01 00:02:42;;;;;;;9.30;4.97;;;;;;;;;;5109155;28;20031;-71
2021/05/01 00:05:08;;;;;;;6.43;4.35;;;;;;;;;;5112850;28;20027;-71
2021/05/01 00:07:34;;;;;;;5.32;4.20;;;;;;;;;;5112836;27;20497;-71
2021/05/01 00:10:00;;;;;;;6.75;4.38;;;;;;;;;;5112573;28;20457;-74
2021/05/01 00:12:26;;;;;;;7.10;4.20;;;;;;;;;;5110138;28;20087;-71
2021/05/01 00:14:52;;;;;;;5.88;4.55;;;;;;;;;;5112292;28;20489;-72
2021/05/01 00:17:18;;;;;;;8.18;4.68;;;;;;;;;;5112454;27;20110;-72
2021/05/01 00:19:44;;;;;;;7.10;4.18;;;;;;;;;;5111145;28;20027;-72
2021/05/01 00:22:10;;;;;;;5.68;4.18;;;;;;;;;;5111281;28;20023;-72
2021/05/01 00:24:36;;;;;;;7.22;4.65;;;;;;;;;;5112063;28;20035;-71
2021/05/01 00:27:02;;;;;;;7.72;4.40;;;;;;;;;;5112005;27;20113;-73
2021/05/01 00:29:28;;;;;;;5.50;4.40;;;;;;;;;;5112305;28;20032;-73
2021/05/01 00:31:54;;;;;;;5.15;4.15;;;;;;;;;;5111665;28;20043;-73
2021/05/01 00:34:20;;;;;;;5.22;4.25;;;;;;;;;;5112008;28;20465;-72
2021/05/01 00:36:46;;;;;;;6.40;4.47;;;;;;;;;;5111625;27;20027;-72
2021/05/01 00:39:12;;;;;;;14.02;4.30;;;;;;;;;;5112261;28;20019;-71
2021/05/01 00:41:38;;;;;;;7.15;4.18;;;;;;;;;;5111366;28;20481;-73
2021/05/01 00:44:05;;;;;;;5.82;3.90;;;;;;;;;;5112214;28;20020;-72
2021/05/01 00:46:31;;;;;;;5.32;3.90;;;;;;;;;;5112330;28;20085;-72
2021/05/01 00:48:57;;;;;;;7.32;4.10;;;;;;;;;;5111788;27;20042;-72
2021/05/01 00:51:23;;;;;;;6.75;3.83;;;;;;;;;;5110031;28;20118;-72
2021/05/01 00:53:49;;;;;;;4.55;3.95;;;;;;;;;;5111939;28;20031;-72
2021/05/01 00:56:16;;;;;;;7.43;4.20;;;;;;;;;;5111898;28;20477;-72
2021/05/01 00:58:42;;;;;;;6.15;3.90;;;;;;;;;;5110960;27;20040;-73
2021/05/01 01:03:35;;;;;;;6.45;4.47;;;;;;;;;;5111759;28;20042;-72
2021/05/01 01:06:01;;;;;;;4.70;3.85;;;;;;;;;;5109245;28;20023;-72
2021/05/01 01:08:27;;;;;;;6.82;4.28;;;;;;;;;;5111156;27;20115;-73
2021/05/01 01:10:53;;;;;;;6.63;3.92;;;;;;;;;;5111207;28;20330;-72
2021/05/01 01:13:19;;;;;;;6.30;4.13;;;;;;;;;;5109804;28;20028;-73
2021/05/01 01:15:45;;;;;;;4.70;3.95;;;;;;;;;;5111591;28;20039;-72
2021/05/01 01:18:11;;;;;;;5.88;3.80;;;;;;;;;;5111185;28;20326;-71
2021/05/01 01:20:37;;;;;;;8.13;4.07;;;;;;;;;;5110465;27;20040;-72
2021/05/01 01:23:03;;;;;;;5.53;3.60;;;;;;;;;;5111632;27;20031;-72
2021/05/01 01:25:30;;;;;;;7.85;4.00;;;;;;;;;;5111045;28;20032;-73
2021/05/01 01:27:56;;;;;;;5.40;3.60;;;;;;;;;;5110931;27;20138;-72
2021/05/01 01:30:30;;;;;;;12.32;4.20;;;;;;;;;;5110994;27;20044;-72
2021/05/01 01:32:56;;;;;;;5.68;4.07;;;;;;;;;;5090994;28;20549;-73
2021/05/01 01:35:23;;;;;;;7.38;3.85;;;;;;;;;;5091220;28;20053;-73
2021/05/01 01:37:49;;;;;;;5.38;3.97;;;;;;;;;;5091104;28;20039;-73
2021/05/01 01:40:16;;;;;;;5.00;3.65;;;;;;;;;;5098531;28;20149;-72
2021/05/01 01:42:42;;;;;;;5.30;4.10;;;;;;;;;;5110364;28;20028;-72
2021/05/01 01:45:13;;;;;;;4.60;3.77;;;;;;;;;;5111520;28;20028;-72
2021/05/01 01:47:39;;;;;;;5.00;3.58;;;;;;;;;;5110445;28;20325;-73
2021/05/01 01:50:06;;;;;;;4.43;3.73;;;;;;;;;;5111317;27;20134;-72
2021/05/01 01:52:32;;;;;;;5.05;3.45;;;;;;;;;;5110103;28;20287;-73
2021/05/01 01:54:58;;;;;;;5.55;3.40;;;;;;;;;;5108726;28;20027;-72
2021/05/01 01:57:24;;;;;;;4.47;3.65;;;;;;;;;;5110910;28;20076;-71
2021/05/01 01:59:50;;;;;;;3.88;3.38;;;;;;;;;;5111270;28;20419;-73
2021/05/01 02:02:16;;;;;;;5.07;3.80;;;;;;;;;;5128269;27;20069;-72
2021/05/01 02:04:42;;;;;;;7.72;3.85;;;;;;;;;;5127700;27;20024;-73
2021/05/01 02:07:08;;;;;;;5.75;3.65;;;;;;;;;;5109597;28;20517;-72
2021/05/01 02:09:34;;;;;;;7.47;3.25;;;;;;;;;;5110729;28;20119;-73
2021/05/01 02:12:00;;;;;;;5.18;3.28;;;;;;;;;;5110185;27;20558;-73
2021/05/01 02:14:26;;;;;;;4.60;3.67;;;;;;;;;;5110531;28;20063;-73
2021/05/01 02:16:52;;;;;;;4.18;3.58;;;;;;;;;;5110930;28;20031;-73
2021/05/01 02:19:18;;;;;;;4.85;3.65;;;;;;;;;;5110374;28;20027;-73
2021/05/01 02:21:44;;;;;;;5.50;3.80;;;;;;;;;;5109914;27;20067;-73
2021/05/01 02:24:11;;;;;;;4.57;3.40;;;;;;;;;;5108329;28;20466;-73
2021/05/01 02:26:37;;;;;;;4.20;3.42;;;;;;;;;;5110703;28;20027;-73
2021/05/01 02:29:03;;;;;;;5.78;3.72;;;;;;;;;;5110469;28;20059;-73
2021/05/01 02:31:29;;;;;;;6.47;3.95;;;;;;;;;;5108338;27;20036;-73
2021/05/01 02:33:55;;;;;;;4.57;3.67;;;;;;;;;;5110427;28;20580;-72
2021/05/01 02:36:21;;;;;;;6.30;3.65;;;;;;;;;;5109842;28;20032;-73
2021/05/01 02:38:47;;;;;;;4.47;3.27;;;;;;;;;;5110570;28;20036;-72
2021/05/01 02:41:13;;;;;;;4.43;3.50;;;;;;;;;;5110729;28;20038;-73
2021/05/01 02:43:39;;;;;;;7.95;3.50;;;;;;;;;;5110627;27;20512;-73
2021/05/01 02:46:05;;;;;;;4.50;3.22;;;;;;;;;;5113579;28;20077;-73
2021/05/01 02:48:31;;;;;;;4.28;3.17;;;;;;;;;;5114415;28;20482;-73
2021/05/01 02:51:01;;;;;;;3.70;3.33;;;;;;;;;;5113424;28;20177;-73
2021/05/01 02:53:27;;;;;;;6.32;3.80;;;;;;;;;;5113988;27;20047;-72
2021/05/01 02:55:53;;;;;;;3.75;2.90;;;;;;;;;;5114577;27;20023;-75
2021/05/01 02:58:19;;;;;;;5.17;3.73;;;;;;;;;;5113686;27;20034;-73
2021/05/01 03:00:45;;;;;;;5.25;3.30;;;;;;;;;;5114162;28;20031;-73
2021/05/01 03:03:11;;;;;;;4.72;3.28;;;;;;;;;;5113369;27;20028;-73
2021/05/01 03:05:37;;;;;;;7.15;3.53;;;;;;;;;;5113519;27;20036;-72
2021/05/01 03:08:03;;;;;;;4.32;3.33;;;;;;;;;;5112763;27;20486;-72
2021/05/01 03:10:30;;;;;;;6.43;3.42;;;;;;;;;;5112149;28;20058;-74
2021/05/01 03:12:56;;;;;;;4.70;3.17;;;;;;;;;;5113855;28;20019;-71
2021/05/01 03:15:22;;;;;;;4.25;3.20;;;;;;;;;;5113628;27;20074;-73
2021/05/01 03:17:49;;;;;;;4.88;3.03;;;;;;;;;;5114099;28;20543;-72
2021/05/01 03:20:15;;;;;;;3.50;3.10;;;;;;;;;;5113714;28;20035;-73
2021/05/01 03:22:41;;;;;;;6.85;3.50;;;;;;;;;;5112512;28;20022;-71
2021/05/01 03:25:09;;;;;;;4.60;3.40;;;;;;;;;;5112589;27;20040;-72
2021/05/01 03:27:35;;;;;;;4.20;3.53;;;;;;;;;;5113778;28;20028;-71
2021/05/01 03:30:02;;;;;;;4.93;3.60;;;;;;;;;;5113498;28;20048;-71
2021/05/01 03:32:28;;;;;;;3.83;3.20;;;;;;;;;;5112768;28;20023;-72
2021/05/01 03:34:55;;;;;;;4.22;3.10;;;;;;;;;;5112603;27;20047;-71
2021/05/01 03:37:21;;;;;;;4.35;3.15;;;;;;;;;;5112632;28;20035;-71
2021/05/01 03:39:47;;;;;;;7.13;3.30;;;;;;;;;;5113591;28;20031;-74
2021/05/01 03:42:13;;;;;;;3.92;3.10;;;;;;;;;;5113236;28;20023;-73
2021/05/01 03:44:39;;;;;;;4.10;3.20;;;;;;;;;;5113116;27;20126;-73
2021/05/01 03:47:05;;;;;;;5.32;3.20;;;;;;;;;;5113294;28;20149;-72
2021/05/01 03:49:31;;;;;;;5.00;3.35;;;;;;;;;;5113137;28;20024;-71
2021/05/01 03:51:57;;;;;;;4.57;3.38;;;;;;;;;;5111710;28;20561;-72
2021/05/01 03:54:23;;;;;;;4.00;3.22;;;;;;;;;;5112859;28;20031;-71
2021/05/01 03:56:49;;;;;;;4.75;2.97;;;;;;;;;;5110033;28;20408;-73
2021/05/01 03:59:15;;;;;;;4.13;3.13;;;;;;;;;;5111745;28;20027;-72
2021/05/01 04:01:41;;;;;;;4.22;3.17;;;;;;;;;;5092915;28;20016;-72
2021/05/01 04:04:10;;;;;;;5.07;3.00;;;;;;;;;;5109474;28;20031;-72
2021/05/01 04:06:36;;;;;;;3.53;3.00;;;;;;;;;;5112494;27;20040;-73
2021/05/01 04:09:03;;;;;;;4.97;3.07;;;;;;;;;;5112641;28;20047;-72
2021/05/01 04:11:29;;;;;;;4.70;3.17;;;;;;;;;;5112304;28;20281;-72
2021/05/01 04:13:55;;;;;;;4.47;2.70;;;;;;;;;;5112475;28;20078;-72
2021/05/01 04:16:21;;;;;;;4.03;2.90;;;;;;;;;;5112207;27;20039;-73
2021/05/01 04:18:47;;;;;;;4.43;3.20;;;;;;;;;;5111326;28;20035;-73
2021/05/01 04:21:13;;;;;;;3.65;2.80;;;;;;;;;;5111919;28;20027;-75
2021/05/01 04:23:40;;;;;;;3.97;2.90;;;;;;;;;;5112990;28;20023;-73
2021/05/01 04:26:06;;;;;;;4.10;2.80;;;;;;;;;;5112053;27;20504;-72
2021/05/01 04:28:32;;;;;;;4.38;3.20;;;;;;;;;;5111989;28;20027;-72
2021/05/01 04:30:58;;;;;;;4.30;3.03;;;;;;;;;;5111411;28;20463;-73
2021/05/01 04:33:25;;;;;;;3.47;2.70;;;;;;;;;;5111748;28;20020;-73
2021/05/01 04:35:51;;;;;;;4.25;3.10;;;;;;;;;;5111703;28;20031;-73
2021/05/01 04:38:17;;;;;;;4.43;2.97;;;;;;;;;;5111279;27;20477;-73
2021/05/01 04:40:43;;;;;;;3.60;2.88;;;;;;;;;;5112037;28;20118;-73
2021/05/01 04:43:11;;;;;;;4.43;2.73;;;;;;;;;;5111730;28;20027;-72
2021/05/01 04:45:38;;;;;;;3.58;2.80;;;;;;;;;;5111302;28;20405;-73
2021/05/01 04:48:05;;;;;;;6.43;3.20;;;;;;;;;;5112084;27;20050;-73
2021/05/01 04:50:31;;;;;;;3.65;2.90;;;;;;;;;;5111929;28;20046;-73
2021/05/01 04:52:56;;;;;;;3.22;2.60;;;;;;;;;;5111623;28;20031;-72
2021/05/01 04:55:25;;;;;;;3.75;2.88;;;;;;;;;;5111563;28;20028;-72
2021/05/01 04:57:51;;;;;;;4.05;2.97;;;;;;;;;;5111323;27;20054;-73
2021/05/01 05:00:17;;;;;;;3.47;2.65;;;;;;;;;;5110962;27;20031;-75
2021/05/01 05:02:44;;;;;;;4.47;2.90;;;;;;;;;;5111985;28;20032;-73
2021/05/01 05:05:10;;;;;;;10.50;3.10;;;;;;;;;;5109405;28;20408;-73
2021/05/01 05:07:37;;;;;;;7.15;2.88;;;;;;;;;;5110370;27;20756;-72
2021/05/01 05:10:03;;;;;;;5.03;2.80;;;;;;;;;;5110866;27;20092;-73
2021/05/01 05:12:29;;;;;;;4.43;2.90;;;;;;;;;;5112165;28;20031;-73
2021/05/01 05:14:55;;;;;;;4.18;2.53;;;;;;;;;;5111531;27;20024;-72
2021/05/01 05:17:21;;;;;;;3.78;2.72;;;;;;;;;;5111304;28;20045;-73
2021/05/01 05:19:47;;;;;;;5.25;2.70;;;;;;;;;;5110596;27;20043;-72
2021/05/01 05:22:13;;;;;;;4.45;2.85;;;;;;;;;;5111276;28;20028;-73
2021/05/01 05:24:40;;;;;;;4.93;2.97;;;;;;;;;;5111567;28;20019;-72
2021/05/01 05:27:06;;;;;;;4.85;2.70;;;;;;;;;;5110492;28;20027;-72
2021/05/01 05:29:35;;;;;;;7.90;3.33;;;;;;;;;;5099813;28;20043;-73
2021/05/01 05:32:03;;;;;;;3.38;2.63;;;;;;;;;;5096546;28;20047;-73
2021/05/01 05:34:29;;;;;;;3.38;2.50;;;;;;;;;;5109865;28;20034;-72
2021/05/01 05:36:55;;;;;;;4.10;2.63;;;;;;;;;;5110355;28;20031;-73
2021/05/01 05:39:21;;;;;;;7.75;2.83;;;;;;;;;;5110082;27;20074;-73
2021/05/01 05:41:47;;;;;;;3.72;2.70;;;;;;;;;;5098937;28;20111;-73
2021/05/01 05:44:13;;;;;;;3.40;2.50;;;;;;;;;;5100947;28;20084;-73
2021/05/01 05:46:39;;;;;;;3.63;2.63;;;;;;;;;;5109889;28;20023;-72
2021/05/01 05:49:06;;;;;;;4.13;2.40;;;;;;;;;;5104859;28;20035;-72
2021/05/01 05:51:32;;;;;;;5.65;2.60;;;;;;;;;;5110614;27;20055;-73
2021/05/01 05:53:58;;;;;;;8.57;2.65;;;;;;;;;;5111545;28;20019;-74
2021/05/01 05:56:24;;;;;;;2.95;2.60;;;;;;;;;;5110281;28;20024;-72
2021/05/01 05:58:50;;;;;;;4.38;2.55;;;;;;;;;;5110844;28;20119;-72
2021/05/01 06:01:16;;;;;;;3.75;2.72;;;;;;;;;;5110520;27;20116;-73
2021/05/01 06:03:45;;;;;;;3.78;2.63;;;;;;;;;;5111363;28;20463;-73
2021/05/01 06:06:12;;;;;;;2.80;2.55;;;;;;;;;;5109924;28;20389;-72
2021/05/01 06:08:39;;;;;;;4.35;2.40;;;;;;;;;;5109316;28;20028;-72
2021/05/01 06:11:05;;;;;;;2.70;2.45;;;;;;;;;;5110306;27;20183;-72
2021/05/01 06:13:33;;;;;;;5.20;2.50;;;;;;;;;;5110380;28;20022;-72
2021/05/01 06:15:59;;;;;;;3.80;2.63;;;;;;;;;;5110718;28;20366;-72
2021/05/01 06:18:26;;;;;;;3.28;2.65;;;;;;;;;;5109524;28;20020;-71
2021/05/01 06:20:52;;;;;;;3.67;2.30;;;;;;;;;;5116571;27;20065;-72
2021/05/01 06:23:19;;;;;;;4.90;2.35;;;;;;;;;;5114505;27;20028;-72
2021/05/01 06:25:45;;;;;;;4.18;2.63;;;;;;;;;;5114796;27;20098;-72
2021/05/01 06:28:12;;;;;;;4.10;2.72;;;;;;;;;;5114330;28;20027;-71
2021/05/01 06:30:40;;;;;;;5.43;2.40;;;;;;;;;;5113881;28;20054;-71
2021/05/01 06:33:08;;;;;;;4.57;2.60;;;;;;;;;;5113603;27;20032;-72
2021/05/01 06:35:35;;;;;;;4.15;2.47;;;;;;;;;;5113515;28;20106;-72
2021/05/01 06:38:01;;;;;;;5.32;2.47;;;;;;;;;;5114079;28;20039;-73
2021/05/01 06:40:32;;;;;;;3.93;2.50;;;;;;;;;;5114048;28;20062;-72
2021/05/01 06:43:01;;;;;;;8.35;2.70;;;;;;;;;;5113809;27;20286;-72
2021/05/01 06:45:27;;;;;;;13.40;2.65;;;;;;;;;;5113827;28;20043;-72
2021/05/01 06:47:54;;;;;;;7.47;2.85;;;;;;;;;;5114461;28;20027;-72
2021/05/01 06:50:24;;;;;;;4.47;2.58;;;;;;;;;;5113343;27;20035;-71
2021/05/01 06:52:50;;;;;;;7.97;2.50;;;;;;;;;;5114602;27;20122;-72
2021/05/01 06:55:18;;;;;;;3.47;2.58;;;;;;;;;;5112294;28;20655;-72
2021/05/01 06:57:46;;;;;;;3.05;2.33;;;;;;;;;;5114009;28;20028;-72
2021/05/01 07:00:13;;;;;;;2.97;2.40;;;;;;;;;;5113970;28;20358;-72
2021/05/01 07:02:41;;;;;;;5.38;2.55;;;;;;;;;;5112751;27;20512;-72
2021/05/01 07:05:11;;;;;;;7.13;2.70;;;;;;;;;;5109174;28;20047;-72
2021/05/01 07:07:37;;;;;;;3.78;2.80;;;;;;;;;;5105040;28;20027;-71
2021/05/01 07:10:07;;;;;;;3.50;2.58;;;;;;;;;;5113147;28;20090;-72
2021/05/01 07:12:33;;;;;;;4.18;2.30;;;;;;;;;;5112758;28;20034;-72
2021/05/01 07:15:04;;;;;;;5.07;2.60;;;;;;;;;;5113870;27;20540;-71
2021/05/01 07:17:30;;;;;;;3.35;2.40;;;;;;;;;;5116136;27;20024;-71
2021/05/01 07:19:58;;;;;;;10.10;2.60;;;;;;;;;;5128490;27;20020;-72
2021/05/01 07:22:24;;;;;;;7.45;2.30;;;;;;;;;;5111626;27;20123;-75
2021/05/01 07:24:50;;;;;;;18.58;2.97;;;;;;;;;;5113461;27;20070;-79
2021/05/01 07:27:16;;;;;;;12.43;2.58;;;;;;;;;;5111885;28;20028;-79
2021/05/01 07:29:45;;;;;;;10.65;2.90;;;;;;;;;;5113262;28;20114;-78
2021/05/01 07:32:15;;;;;;;8.32;2.60;;;;;;;;;;5113512;28;20035;-76
2021/05/01 07:34:49;;;;;;;7.70;2.40;;;;;;;;;;5111542;28;20036;-77
2021/05/01 07:37:17;;;;;;;3.03;2.30;;;;;;;;;;5111954;27;20035;-78
2021/05/01 07:39:48;;;;;;;7.63;2.30;;;;;;;;;;5113483;28;20019;-79
2021/05/01 07:42:13;;;;;;;3.58;2.67;;;;;;;;;;5113177;28;20110;-78
2021/05/01 07:44:40;;;;;;;3.72;2.47;;;;;;;;;;5113525;27;20106;-76
2021/05/01 07:47:07;;;;;;;8.25;2.63;;;;;;;;;;5113125;28;20028;-80
2021/05/01 07:49:33;;;;;;;3.97;2.70;;;;;;;;;;5112405;28;20103;-79
2021/05/01 07:52:00;;;;;;;4.60;2.53;;;;;;;;;;5111667;28;20059;-77
2021/05/01 07:54:26;;;;;;;3.83;2.70;;;;;;;;;;5112977;27;20031;-77
2021/05/01 07:56:52;;;;;;;4.45;2.75;;;;;;;;;;5112795;28;20023;-77
2021/05/01 07:59:18;;;;;;;4.43;2.58;;;;;;;;;;5112580;28;20142;-78
2021/05/01 08:01:44;;;;;;;6.22;3.10;;;;;;;;;;5113095;28;20034;-77
2021/05/01 08:04:11;;;;;;;5.30;3.20;;;;;;;;;;5112399;28;20020;-78
2021/05/01 08:06:37;;;;;;;5.90;3.47;;;;;;;;;;5111524;27;20055;-76
2021/05/01 08:09:03;;;;;;;5.68;3.30;;;;;;;;;;5112544;28;20481;-76
2021/05/01 08:11:29;;;;;;;5.55;3.30;;;;;;;;;;5112581;28;20067;-76
2021/05/01 08:13:55;;;;;;;8.80;3.25;;;;;;;;;;5112825;28;20469;-76
2021/05/01 08:16:21;;;;;;;10.05;3.28;;;;;;;;;;5112158;27;20054;-77
2021/05/01 08:18:47;;;;;;;8.23;3.83;;;;;;;;;;5116110;27;20057;-79
2021/05/01 08:21:13;;;;;;;6.15;3.33;;;;;;;;;;5114559;27;20019;-82
2021/05/01 08:23:40;;;;;;;5.10;3.05;;;;;;;;;;5111063;28;20019;-79
2021/05/01 08:26:06;;;;;;;7.60;3.40;;;;;;;;;;5111752;27;20046;-80
2021/05/01 08:28:33;;;;;;;7.45;3.47;;;;;;;;;;5112331;28;20153;-77
2021/05/01 08:30:59;;;;;;;5.20;3.72;;;;;;;;;;5112673;28;20039;-76
2021/05/01 08:33:25;;;;;;;5.85;3.83;;;;;;;;;;5112194;27;20035;-79
2021/05/01 08:35:51;;;;;;;10.45;4.47;;;;;;;;;;5111058;27;20062;-82
2021/05/01 08:38:20;;;;;;;6.75;3.95;;;;;;;;;;5111030;28;20016;-79
2021/05/01 08:40:46;;;;;;;5.60;4.38;;;;;;;;;;5108105;28;20028;-78
2021/05/01 08:43:12;;;;;;;5.05;4.00;;;;;;;;;;5110273;28;20023;-78
2021/05/01 08:45:38;;;;;;;6.45;3.78;;;;;;;;;;5110866;28;20028;-79
2021/05/01 08:48:05;;;;;;;12.90;4.20;;;;;;;;;;5110018;27;20084;-74
2021/05/01 08:50:34;;;;;;;8.27;4.50;;;;;;;;;;5112478;27;20390;-80
2021/05/01 08:53:03;;;;;;;10.20;4.97;;;;;;;;;;5110997;28;20389;-79
2021/05/01 08:55:35;;;;;;;13.90;5.18;;;;;;;;;;5111525;28;20031;-80
2021/05/01 08:58:05;;;;;;;10.07;5.13;;;;;;;;;;5109739;27;20032;-77
2021/05/01 09:00:31;;;;;;;6.97;4.60;;;;;;;;;;5109393;28;20389;-79
2021/05/01 09:03:01;;;;;;;7.10;4.90;;;;;;;;;;5109927;28;20068;-79
2021/05/01 09:05:27;;;;;;;7.60;5.45;;;;;;;;;;5110850;28;20019;-79
2021/05/01 09:07:53;;;;;;;10.35;5.22;;;;;;;;;;5110247;28;20046;-80
2021/05/01 09:10:19;;;;;;;8.77;5.32;;;;;;;;;;5109600;28;20027;-79
2021/05/01 09:12:47;;;;;;;6.53;5.00;;;;;;;;;;5110308;28;20024;-79
2021/05/01 09:15:19;;;;;;;5.55;4.93;;;;;;;;;;5110287;28;20015;-80
2021/05/01 09:17:46;;;;;;;11.60;5.53;;;;;;;;;;5109473;27;20044;-77
2021/05/01 09:20:13;;;;;;;6.95;5.30;;;;;;;;;;5109000;28;20032;-80
2021/05/01 09:22:58;;;;;;;6.75;4.93;;;;;;;;;;5108865;28;20020;-77
2021/05/01 09:25:25;;;;;;;10.65;5.20;;;;;;;;;;5108817;28;20032;-82
2021/05/01 09:27:51;;;;;;;;;;;;;;;;;;5108807;27;20505;-79
2021/05/01 09:30:18;;;;;;;7.80;5.27;;;;;;;;;;5108651;28;19978;-78
2021/05/01 09:32:43;;;;;;;7.17;5.67;;;;;;;;;;5109476;28;20019;-79
2021/05/01 09:35:10;;;;;;;6.63;5.90;;;;;;;;;;5108998;28;20347;-79
2021/05/01 09:37:37;;;;;;;8.37;4.90;;;;;;;;;;5109472;27;20084;-79
2021/05/01 09:40:03;;;;;;;8.15;5.35;;;;;;;;;;5110178;28;20088;-80
2021/05/01 09:42:31;;;;;;;9.05;5.30;;;;;;;;;;5110132;28;20024;-81
2021/05/01 09:46:43;;;;;;;10.82;4.60;;;;;;;;;;5109001;27;20309;-84
2021/05/01 09:49:19;;;;;;;8.27;4.80;;;;;;;;;;5108526;27;20261;-84
2021/05/01 09:51:48;;;;;;;6.80;4.97;;;;;;;;;;5108777;28;20034;-84
2021/05/01 09:54:14;;;;;;;6.03;4.40;;;;;;;;;;5108618;28;20544;-82
2021/05/01 09:56:44;;;;;;;8.63;4.55;;;;;;;;;;5112502;28;20028;-85
2021/05/01 09:59:11;;;;;;;6.88;3.95;;;;;;;;;;5128995;27;20058;-83
2021/05/01 10:01:37;;;;;;;5.47;4.55;;;;;;;;;;5128631;27;20031;-82
2021/05/01 10:04:10;;;;;;;6.63;4.40;;;;;;;;;;5129071;27;20457;-83
2021/05/01 10:06:36;;;;;;;8.18;4.50;;;;;;;;;;5128158;27;20053;-83
2021/05/01 10:09:02;;;;;;;6.82;4.57;;;;;;;;;;5120850;27;20040;-82
2021/05/01 10:11:29;;;;;;;7.25;4.43;;;;;;;;;;5110183;28;20066;-82
2021/05/01 10:13:56;;;;;;;7.13;4.53;;;;;;;;;;5118263;28;20034;-82
2021/05/01 10:16:22;;;;;;;13.88;5.03;;;;;;;;;;5106920;28;20496;-82
2021/05/01 10:19:07;;;;;;;18.73;4.63;;;;;;;;;;5099520;28;20070;-81
2021/05/01 10:21:33;;;;;;;23.10;4.88;;;;;;;;;;5090685;28;20510;-80
2021/05/01 10:23:59;;;;;;;18.27;5.10;;;;;;;;;;5087516;28;20032;-81
2021/05/01 10:26:25;;;;;;;28.03;5.50;;;;;;;;;;5098646;28;20089;-77
2021/05/01 10:28:57;;;;;;;17.13;5.25;;;;;;;;;;5087132;28;20055;-79
2021/05/01 10:31:24;;;;;;;12.60;4.72;;;;;;;;;;5103261;28;20043;-79
2021/05/01 10:33:51;;;;;;;24.48;6.03;;;;;;;;;;5128507;28;20110;-80
2021/05/01 10:36:31;;;;;;;10.43;4.55;;;;;;;;;;5107124;27;20024;-78
2021/05/01 10:39:01;;;;;;;8.27;4.35;;;;;;;;;;5093822;28;20094;-81
2021/05/01 10:41:30;;;;;;;6.72;3.88;;;;;;;;;;5089420;28;20607;-81
2021/05/01 10:43:59;;;;;;;12.10;4.85;;;;;;;;;;5087399;28;20021;-80
2021/05/01 10:46:33;;;;;;;7.05;4.70;;;;;;;;;;5087300;28;20234;-80
2021/05/01 10:49:04;;;;;;;7.93;4.93;;;;;;;;;;5089700;28;20078;-80
2021/05/01 10:51:31;;;;;;;6.63;4.65;;;;;;;;;;5118666;28;20059;-80
2021/05/01 10:54:15;;;;;;;7.03;4.78;;;;;;;;;;5107196;28;20020;-81
2021/05/01 10:56:45;;;;;;;7.97;4.85;;;;;;;;;;5116553;28;20477;-81
2021/05/01 10:59:12;;;;;;;9.07;4.85;;;;;;;;;;5114300;27;20046;-80
2021/05/01 11:01:48;;;;;;;11.50;5.00;;;;;;;;;;5113903;28;20069;-81
2021/05/01 11:04:24;;;;;;;12.98;4.35;;;;;;;;;;5088045;28;20020;-83
2021/05/01 11:06:51;;;;;;;8.55;3.95;;;;;;;;;;5086313;28;20036;-82
2021/05/01 11:09:35;;;;;;;5.07;3.55;;;;;;;;;;5111643;27;20045;-83
2021/05/01 11:12:01;;;;;;;6.85;3.60;;;;;;;;;;5096373;28;20458;-83
2021/05/01 11:14:29;;;;;;;7.60;3.50;;;;;;;;;;5086833;28;20028;-85
2021/05/01 11:17:12;;;;;;;5.30;3.10;;;;;;;;;;5086843;28;20054;-82
2021/05/01 11:19:43;;;;;;;6.72;3.60;;;;;;;;;;5084318;28;20074;-83
2021/05/01 11:22:15;;;;;;;5.82;3.50;;;;;;;;;;5093615;28;20102;-84
2021/05/01 11:24:43;;;;;;;9.38;3.25;;;;;;;;;;5093625;28;20032;-83
2021/05/01 11:27:09;;;;;;;4.38;3.17;;;;;;;;;;5091039;28;20032;-85
2021/05/01 11:29:35;;;;;;;5.95;3.10;;;;;;;;;;5095106;28;20131;-81
2021/05/01 11:32:02;;;;;;;16.88;3.25;;;;;;;;;;5079173;28;20466;-82
2021/05/01 11:34:30;;;;;;;6.75;3.50;;;;;;;;;;5089408;28;20038;-82
2021/05/01 11:36:56;;;;;;;7.50;3.38;;;;;;;;;;5073125;28;20040;-81
2021/05/01 11:39:23;;;;;;;7.05;3.30;;;;;;;;;;5076820;28;20040;-82
2021/05/01 11:41:49;;;;;;;7.20;3.22;;;;;;;;;;5092206;28;20464;-82
2021/05/01 11:44:17;;;;;;;6.87;3.53;;;;;;;;;;5096936;28;20031;-80
2021/05/01 11:46:46;;;;;;;7.97;3.03;;;;;;;;;;5114529;27;20265;-80
2021/05/01 11:49:13;;;;;;;7.18;3.25;;;;;;;;;;5113515;28;20566;-81
2021/05/01 11:51:57;;;;;;;5.50;3.30;;;;;;;;;;5107107;27;20040;-79
2021/05/01 11:54:26;;;;;;;8.15;3.40;;;;;;;;;;5078205;28;20068;-82
2021/05/01 11:56:52;;;;;;;7.18;3.53;;;;;;;;;;5071877;28;20107;-84
2021/05/01 11:59:21;;;;;;;5.50;3.43;;;;;;;;;;5085472;28;20120;-80
2021/05/01 12:01:59;;;;;;;4.47;3.10;;;;;;;;;;5085037;28;20054;-81
2021/05/01 12:04:41;;;;;;;6.25;2.83;;;;;;;;;;5070579;28;20060;-81
2021/05/01 12:07:07;;;;;;;5.70;3.40;;;;;;;;;;5071731;28;20174;-81
2021/05/01 12:09:39;;;;;;;4.07;3.00;;;;;;;;;;5070349;28;20356;-82
2021/05/01 12:12:08;;;;;;;5.85;3.10;;;;;;;;;;5085592;28;20047;-80
2021/05/01 12:14:35;;;;;;;6.07;3.03;;;;;;;;;;5081914;28;20029;-82
2021/05/01 12:17:11;;;;;;;4.63;2.80;;;;;;;;;;5071841;28;20100;-81
2021/05/01 12:19:41;;;;;;;4.78;3.03;;;;;;;;;;5091029;28;20090;-80
2021/05/01 12:22:25;;;;;;;5.82;3.08;;;;;;;;;;5089794;28;20086;-81
2021/05/01 12:24:51;;;;;;;6.20;3.10;;;;;;;;;;5090356;28;20032;-82
2021/05/01 12:27:37;;;;;;;6.45;3.20;;;;;;;;;;5088549;28;20024;-81
2021/05/01 12:30:03;;;;;;;3.80;2.90;;;;;;;;;;5074518;28;20433;-82
2021/05/01 12:32:29;;;;;;;3.78;3.05;;;;;;;;;;5077135;28;20040;-81
2021/05/01 12:34:57;;;;;;;5.77;3.40;;;;;;;;;;5090540;28;20054;-82
2021/05/01 12:37:23;;;;;;;4.22;3.00;;;;;;;;;;5086745;28;20617;-82
2021/05/01 12:39:49;;;;;;;8.43;3.20;;;;;;;;;;5074668;28;20475;-82
2021/05/01 12:42:20;;;;;;;3.80;3.03;;;;;;;;;;5081539;28;20028;-80
2021/05/01 12:44:50;;;;;;;4.85;2.88;;;;;;;;;;5089311;28;20056;-82
2021/05/01 12:47:34;;;;;;;7.60;3.10;;;;;;;;;;5088050;28;20028;-80
2021/05/01 12:50:12;;;;;;;5.20;3.22;;;;;;;;;;5070754;28;20050;-81
2021/05/01 12:52:40;;;;;;;4.82;3.05;;;;;;;;;;5084016;28;20032;-81
2021/05/01 12:55:07;;;;;;;4.47;2.83;;;;;;;;;;5070733;28;20040;-82
2021/05/01 12:57:34;;;;;;;5.75;3.08;;;;;;;;;;5071008;28;20075;-82
2021/05/01 13:00:19;;;;;;;5.35;2.97;;;;;;;;;;5077666;28;20416;-82
2021/05/01 13:03:05;;;;;;;4.70;2.80;;;;;;;;;;5086670;28;20103;-81
2021/05/01 13:05:34;;;;;;;7.97;3.17;;;;;;;;;;5087276;28;20309;-81
2021/05/01 13:08:01;;;;;;;4.15;2.97;;;;;;;;;;5084859;28;20032;-81
2021/05/01 13:10:27;;;;;;;4.25;2.90;;;;;;;;;;5071587;28;20490;-82
2021/05/01 13:12:56;;;;;;;5.10;3.13;;;;;;;;;;5070585;28;20482;-81
2021/05/01 13:15:22;;;;;;;5.32;3.00;;;;;;;;;;5070138;28;20032;-82
2021/05/01 13:17:49;;;;;;;;;;;;;;;;;;5077096;28;20036;-77
2021/05/01 13:20:17;;;;;;;5.57;2.80;;;;;;;;;;5097347;28;19914;-78
2021/05/01 13:22:47;;;;;;;5.25;2.88;;;;;;;;;;5101132;28;20477;-77
2021/05/01 13:25:20;;;;;;;3.78;3.05;;;;;;;;;;5099014;28;20489;-80
2021/05/01 13:27:49;;;;;;;5.75;2.90;;;;;;;;;;5099439;28;20035;-77
2021/05/01 13:30:17;;;;;;;4.57;2.95;;;;;;;;;;5100305;28;20031;-80
2021/05/01 13:32:43;;;;;;;6.50;3.10;;;;;;;;;;5099890;28;20023;-78
2021/05/01 13:35:10;;;;;;;8.77;3.20;;;;;;;;;;5098368;28;20188;-83
2021/05/01 13:37:39;;;;;;;;;;;;;;;;;;5095987;28;20269;-81
2021/05/01 13:40:06;;;;;;;8.25;2.85;;;;;;;;;;5100083;28;19908;-79
2021/05/01 13:42:38;;;;;;;36.00;5.07;;;;;;;;;;5096725;28;20106;-80
2021/05/01 13:45:04;;;;;;;22.40;4.22;;;;;;;;;;5098444;28;20109;-80
2021/05/01 13:47:30;;;;;;;;;;;;;;;;;;5099063;28;20023;-81
2021/05/01 13:49:59;;;;;;;36.38;4.72;;;;;;;;;;5097442;28;19915;-77
2021/05/01 13:52:29;;;;;;;23.30;3.97;;;;;;;;;;5097476;28;20106;-76
2021/05/01 13:55:14;;;;;;;15.25;4.38;;;;;;;;;;5098887;28;20020;-77
2021/05/01 13:57:40;;;;;;;13.95;4.30;;;;;;;;;;5099642;28;20047;-77
2021/05/01 14:00:07;;;;;;;12.25;4.15;;;;;;;;;;5099774;28;20032;-76
2021/05/01 14:02:32;;;;;;;;;;;;;;;;;;5099150;28;20024;-75
2021/05/01 14:04:59;;;;;;;9.55;3.90;;;;;;;;;;5098633;28;19965;-76
2021/05/01 14:07:24;;;;;;;8.85;4.00;;;;;;;;;;5097382;28;20066;-75
2021/05/01 14:09:50;;;;;;;7.33;4.27;;;;;;;;;;5097595;28;20024;-75
2021/05/01 14:12:16;;;;;;;10.77;4.20;;;;;;;;;;5098271;28;20031;-75
2021/05/01 14:14:42;;;;;;;9.03;3.93;;;;;;;;;;5081385;28;20316;-75
2021/05/01 14:17:10;;;;;;;11.07;4.10;;;;;;;;;;5097952;28;20470;-76
2021/05/01 14:19:36;;;;;;;7.57;4.32;;;;;;;;;;5098313;28;20278;-74
2021/05/01 14:22:04;;;;;;;8.63;4.30;;;;;;;;;;5097234;28;20469;-77
2021/05/01 14:24:30;;;;;;;10.27;3.90;;;;;;;;;;5096682;28;20027;-77
2021/05/01 14:26:57;;;;;;;6.03;3.40;;;;;;;;;;5097582;28;20103;-82
2021/05/01 14:29:25;;;;;;;6.10;3.67;;;;;;;;;;5099905;28;20024;-83
2021/05/01 14:32:10;;;;;;;9.18;3.63;;;;;;;;;;5097400;28;20024;-84
2021/05/01 14:34:36;;;;;;;9.88;3.72;;;;;;;;;;5098940;28;20462;-84
2021/05/01 14:37:02;;;;;;;7.70;3.47;;;;;;;;;;5095993;28;20091;-84
2021/05/01 14:39:28;;;;;;;7.45;3.47;;;;;;;;;;5099935;28;20127;-83
2021/05/01 14:41:54;;;;;;;5.40;3.53;;;;;;;;;;5095806;28;20110;-83
2021/05/01 14:44:25;;;;;;;6.97;3.80;;;;;;;;;;5101003;28;20314;-83
2021/05/01 14:46:51;;;;;;;7.53;3.72;;;;;;;;;;5099371;28;20028;-84
2021/05/01 14:49:22;;;;;;;7.65;3.80;;;;;;;;;;5097502;28;20036;-83